sensor_id;sensor_type;location;lat;lon;timestamp;P1;durP1;ratioP1;P2;durP2;ratioP2
36241;SDS011;22283;42.748;12.732;2022-10-31T00:02:35;8.23;;;2.77;;
36241;SDS011;22283;42.748;12.732;2022-10-31T00:07:36;19.63;;;3.13;;
36241;SDS011;22283;42.748;12.732;2022-10-31T00:12:36;8.23;;;3.83;;
36241;SDS011;22283;42.748;12.732;2022-10-31T00:17:37;10.43;;;3.07;;
36241;SDS011;22283;42.748;12.732;2022-10-31T00:22:38;8.10;;;3.47;;
36241;SDS011;22283;42.748;12.732;2022-10-31T00:27:39;5.87;;;2.20;;
36241;SDS011;22283;42.748;12.732;2022-10-31T00:32:39;5.13;;;2.50;;
36241;SDS011;22283;42.748;12.732;2022-10-31T00:37:40;6.33;;;2.33;;
36241;SDS011;22283;42.748;12.732;2022-10-31T00:42:41;5.43;;;2.87;;
36241;SDS011;22283;42.748;12.732;2022-10-31T00:47:43;4.85;;;2.38;;
36241;SDS011;22283;42.748;12.732;2022-10-31T00:52:43;3.10;;;2.23;;
36241;SDS011;22283;42.748;12.732;2022-10-31T00:57:46;3.20;;;2.03;;
36241;SDS011;22283;42.748;12.732;2022-10-31T01:02:47;9.05;;;2.30;;
36241;SDS011;22283;42.748;12.732;2022-10-31T01:07:48;4.93;;;2.77;;
36241;SDS011;22283;42.748;12.732;2022-10-31T01:12:49;5.80;;;2.30;;
36241;SDS011;22283;42.748;12.732;2022-10-31T01:17:50;4.97;;;2.20;;
36241;SDS011;22283;42.748;12.732;2022-10-31T01:22:51;8.43;;;2.23;;
36241;SDS011;22283;42.748;12.732;2022-10-31T01:27:51;5.57;;;2.27;;
36241;SDS011;22283;42.748;12.732;2022-10-31T01:32:52;5.30;;;2.00;;
36241;SDS011;22283;42.748;12.732;2022-10-31T01:37:53;4.17;;;2.30;;
36241;SDS011;22283;42.748;12.732;2022-10-31T01:42:53;4.03;;;1.93;;
36241;SDS011;22283;42.748;12.732;2022-10-31T01:47:54;5.73;;;2.20;;
36241;SDS011;22283;42.748;12.732;2022-10-31T01:52:55;8.17;;;3.23;;
36241;SDS011;22283;42.748;12.732;2022-10-31T01:58:01;4.85;;;2.00;;
36241;SDS011;22283;42.748;12.732;2022-10-31T02:03:08;7.25;;;2.45;;
36241;SDS011;22283;42.748;12.732;2022-10-31T02:08:14;6.50;;;2.10;;
36241;SDS011;22283;42.748;12.732;2022-10-31T02:13:23;2.95;;;1.98;;
36241;SDS011;22283;42.748;12.732;2022-10-31T02:18:25;10.45;;;2.65;;
36241;SDS011;22283;42.748;12.732;2022-10-31T02:40:14;7.00;;;1.90;;
36241;SDS011;22283;42.748;12.732;2022-10-31T02:46:36;5.40;;;2.30;;
36241;SDS011;22283;42.748;12.732;2022-10-31T02:51:12;5.13;;;2.13;;
36241;SDS011;22283;42.748;12.732;2022-10-31T02:56:18;3.67;;;2.35;;
36241;SDS011;22283;42.748;12.732;2022-10-31T03:01:29;10.50;;;3.03;;
36241;SDS011;22283;42.748;12.732;2022-10-31T03:06:45;7.03;;;2.13;;
36241;SDS011;22283;42.748;12.732;2022-10-31T03:17:10;6.50;;;3.17;;
36241;SDS011;22283;42.748;12.732;2022-10-31T03:22:27;3.42;;;2.08;;
36241;SDS011;22283;42.748;12.732;2022-10-31T03:27:33;4.88;;;2.00;;
36241;SDS011;22283;42.748;12.732;2022-10-31T03:32:38;5.28;;;2.38;;
36241;SDS011;22283;42.748;12.732;2022-10-31T03:37:46;6.22;;;2.65;;
36241;SDS011;22283;42.748;12.732;2022-10-31T03:42:57;6.07;;;2.17;;
36241;SDS011;22283;42.748;12.732;2022-10-31T03:48:06;8.45;;;3.42;;
36241;SDS011;22283;42.748;12.732;2022-10-31T03:53:09;11.57;;;2.40;;
36241;SDS011;22283;42.748;12.732;2022-10-31T03:58:24;6.78;;;3.13;;
36241;SDS011;22283;42.748;12.732;2022-10-31T04:03:30;5.97;;;2.65;;
36241;SDS011;22283;42.748;12.732;2022-10-31T04:08:36;5.40;;;2.50;;
36241;SDS011;22283;42.748;12.732;2022-10-31T04:13:58;6.07;;;2.50;;
36241;SDS011;22283;42.748;12.732;2022-10-31T04:19:01;5.90;;;2.55;;
36241;SDS011;22283;42.748;12.732;2022-10-31T04:24:02;7.50;;;2.60;;
36241;SDS011;22283;42.748;12.732;2022-10-31T04:29:04;7.13;;;2.72;;
36241;SDS011;22283;42.748;12.732;2022-10-31T04:34:05;6.83;;;2.43;;
36241;SDS011;22283;42.748;12.732;2022-10-31T04:44:26;6.40;;;2.92;;
36241;SDS011;22283;42.748;12.732;2022-10-31T04:49:28;10.55;;;3.20;;
36241;SDS011;22283;42.748;12.732;2022-10-31T04:54:29;6.10;;;3.30;;
36241;SDS011;22283;42.748;12.732;2022-10-31T04:59:48;8.20;;;3.08;;
36241;SDS011;22283;42.748;12.732;2022-10-31T05:04:49;9.03;;;2.53;;
36241;SDS011;22283;42.748;12.732;2022-10-31T05:09:51;10.93;;;2.40;;
36241;SDS011;22283;42.748;12.732;2022-10-31T05:14:53;20.23;;;2.70;;
36241;SDS011;22283;42.748;12.732;2022-10-31T05:20:13;7.43;;;2.58;;
36241;SDS011;22283;42.748;12.732;2022-10-31T05:25:35;6.60;;;2.60;;
36241;SDS011;22283;42.748;12.732;2022-10-31T05:30:38;6.18;;;2.90;;
36241;SDS011;22283;42.748;12.732;2022-10-31T05:35:42;5.28;;;2.20;;
36241;SDS011;22283;42.748;12.732;2022-10-31T05:41:02;8.00;;;2.63;;
36241;SDS011;22283;42.748;12.732;2022-10-31T05:46:05;5.05;;;2.65;;
36241;SDS011;22283;42.748;12.732;2022-10-31T05:51:24;10.38;;;2.78;;
36241;SDS011;22283;42.748;12.732;2022-10-31T05:56:24;12.77;;;2.93;;
36241;SDS011;22283;42.748;12.732;2022-10-31T06:01:25;10.33;;;2.50;;
36241;SDS011;22283;42.748;12.732;2022-10-31T06:06:26;8.70;;;2.97;;
36241;SDS011;22283;42.748;12.732;2022-10-31T06:11:27;5.07;;;3.00;;
36241;SDS011;22283;42.748;12.732;2022-10-31T06:16:48;7.60;;;3.08;;
36241;SDS011;22283;42.748;12.732;2022-10-31T06:22:11;5.07;;;2.45;;
36241;SDS011;22283;42.748;12.732;2022-10-31T06:27:13;12.85;;;2.60;;
36241;SDS011;22283;42.748;12.732;2022-10-31T06:32:15;6.97;;;2.50;;
36241;SDS011;22283;42.748;12.732;2022-10-31T06:37:17;9.13;;;3.15;;
36241;SDS011;22283;42.748;12.732;2022-10-31T06:42:22;11.73;;;3.35;;
36241;SDS011;22283;42.748;12.732;2022-10-31T06:47:22;10.53;;;3.20;;
36241;SDS011;22283;42.748;12.732;2022-10-31T06:52:49;24.13;;;3.72;;
36241;SDS011;22283;42.748;12.732;2022-10-31T06:57:52;9.48;;;2.58;;
36241;SDS011;22283;42.748;12.732;2022-10-31T07:02:57;17.17;;;4.10;;
36241;SDS011;22283;42.748;12.732;2022-10-31T07:08:05;12.55;;;3.70;;
36241;SDS011;22283;42.748;12.732;2022-10-31T07:13:12;7.97;;;3.13;;
36241;SDS011;22283;42.748;12.732;2022-10-31T07:18:19;7.40;;;3.80;;
36241;SDS011;22283;42.748;12.732;2022-10-31T07:23:21;7.68;;;3.20;;
36241;SDS011;22283;42.748;12.732;2022-10-31T07:28:42;14.45;;;3.42;;
36241;SDS011;22283;42.748;12.732;2022-10-31T07:33:45;10.48;;;3.05;;
36241;SDS011;22283;42.748;12.732;2022-10-31T07:39:12;9.73;;;2.55;;
36241;SDS011;22283;42.748;12.732;2022-10-31T07:44:12;8.47;;;3.30;;
36241;SDS011;22283;42.748;12.732;2022-10-31T07:49:36;12.93;;;3.35;;
36241;SDS011;22283;42.748;12.732;2022-10-31T07:54:55;13.18;;;4.68;;
36241;SDS011;22283;42.748;12.732;2022-10-31T07:59:57;14.13;;;5.07;;
36241;SDS011;22283;42.748;12.732;2022-10-31T08:04:58;12.27;;;4.10;;
36241;SDS011;22283;42.748;12.732;2022-10-31T08:10:05;14.27;;;4.10;;
36241;SDS011;22283;42.748;12.732;2022-10-31T08:15:08;11.35;;;3.88;;
36241;SDS011;22283;42.748;12.732;2022-10-31T08:25:17;14.38;;;3.42;;
36241;SDS011;22283;42.748;12.732;2022-10-31T08:30:19;10.00;;;3.38;;
36241;SDS011;22283;42.748;12.732;2022-10-31T08:35:40;11.18;;;3.10;;
36241;SDS011;22283;42.748;12.732;2022-10-31T08:40:59;13.30;;;3.60;;
36241;SDS011;22283;42.748;12.732;2022-10-31T08:46:00;12.98;;;3.92;;
36241;SDS011;22283;42.748;12.732;2022-10-31T08:51:02;9.48;;;3.60;;
36241;SDS011;22283;42.748;12.732;2022-10-31T08:56:04;12.68;;;4.05;;
36241;SDS011;22283;42.748;12.732;2022-10-31T09:01:05;11.32;;;4.00;;
36241;SDS011;22283;42.748;12.732;2022-10-31T09:06:06;20.07;;;4.13;;
36241;SDS011;22283;42.748;12.732;2022-10-31T09:11:09;21.35;;;5.05;;
36241;SDS011;22283;42.748;12.732;2022-10-31T09:16:36;16.15;;;3.63;;
36241;SDS011;22283;42.748;12.732;2022-10-31T09:21:39;17.90;;;4.50;;
36241;SDS011;22283;42.748;12.732;2022-10-31T09:26:41;14.63;;;3.95;;
36241;SDS011;22283;42.748;12.732;2022-10-31T09:31:49;10.63;;;3.80;;
36241;SDS011;22283;42.748;12.732;2022-10-31T09:37:02;11.27;;;3.42;;
36241;SDS011;22283;42.748;12.732;2022-10-31T09:53:18;7.78;;;2.72;;
36241;SDS011;22283;42.748;12.732;2022-10-31T09:58:31;13.20;;;2.85;;
36241;SDS011;22283;42.748;12.732;2022-10-31T10:03:37;7.05;;;3.40;;
36241;SDS011;22283;42.748;12.732;2022-10-31T10:09:02;14.52;;;3.25;;
36241;SDS011;22283;42.748;12.732;2022-10-31T10:30:37;14.52;;;6.88;;
36241;SDS011;22283;42.748;12.732;2022-10-31T10:35:55;13.25;;;5.97;;
36241;SDS011;22283;42.748;12.732;2022-10-31T10:41:00;18.95;;;5.63;;
36241;SDS011;22283;42.748;12.732;2022-10-31T11:02:21;7.85;;;3.22;;
36241;SDS011;22283;42.748;12.732;2022-10-31T11:07:24;7.78;;;3.10;;
36241;SDS011;22283;42.748;12.732;2022-10-31T11:12:28;12.85;;;3.08;;
36241;SDS011;22283;42.748;12.732;2022-10-31T11:17:32;10.05;;;3.03;;
36241;SDS011;22283;42.748;12.732;2022-10-31T11:22:36;7.00;;;2.65;;
36241;SDS011;22283;42.748;12.732;2022-10-31T11:27:36;5.87;;;2.80;;
36241;SDS011;22283;42.748;12.732;2022-10-31T11:32:37;6.90;;;2.70;;
36241;SDS011;22283;42.748;12.732;2022-10-31T11:37:47;8.98;;;2.75;;
36241;SDS011;22283;42.748;12.732;2022-10-31T11:42:51;20.92;;;2.85;;
36241;SDS011;22283;42.748;12.732;2022-10-31T11:47:55;7.35;;;2.75;;
36241;SDS011;22283;42.748;12.732;2022-10-31T11:52:56;4.43;;;2.40;;
36241;SDS011;22283;42.748;12.732;2022-10-31T11:57:57;6.35;;;2.53;;
36241;SDS011;22283;42.748;12.732;2022-10-31T12:08:34;10.63;;;2.50;;
36241;SDS011;22283;42.748;12.732;2022-10-31T12:13:42;10.10;;;2.63;;
36241;SDS011;22283;42.748;12.732;2022-10-31T12:19:29;10.90;;;2.33;;
36241;SDS011;22283;42.748;12.732;2022-10-31T12:29:45;7.50;;;2.05;;
36241;SDS011;22283;42.748;12.732;2022-10-31T12:50:55;9.52;;;2.75;;
36241;SDS011;22283;42.748;12.732;2022-10-31T13:01:46;8.73;;;2.55;;
36241;SDS011;22283;42.748;12.732;2022-10-31T13:06:56;9.80;;;2.70;;
36241;SDS011;22283;42.748;12.732;2022-10-31T13:12:21;8.05;;;2.40;;
36241;SDS011;22283;42.748;12.732;2022-10-31T13:17:24;10.27;;;2.88;;
36241;SDS011;22283;42.748;12.732;2022-10-31T13:22:31;10.45;;;2.38;;
36241;SDS011;22283;42.748;12.732;2022-10-31T13:27:53;11.25;;;2.13;;
36241;SDS011;22283;42.748;12.732;2022-10-31T13:33:14;4.75;;;2.15;;
36241;SDS011;22283;42.748;12.732;2022-10-31T13:38:34;10.93;;;2.33;;
36241;SDS011;22283;42.748;12.732;2022-10-31T13:54:34;9.23;;;2.28;;
36241;SDS011;22283;42.748;12.732;2022-10-31T13:59:36;9.32;;;2.58;;
36241;SDS011;22283;42.748;12.732;2022-10-31T14:04:44;10.50;;;3.40;;
36241;SDS011;22283;42.748;12.732;2022-10-31T14:10:04;9.93;;;2.80;;
36241;SDS011;22283;42.748;12.732;2022-10-31T14:20:23;12.45;;;2.88;;
36241;SDS011;22283;42.748;12.732;2022-10-31T14:25:34;11.25;;;2.75;;
36241;SDS011;22283;42.748;12.732;2022-10-31T14:30:36;10.30;;;2.65;;
36241;SDS011;22283;42.748;12.732;2022-10-31T14:35:48;18.60;;;3.40;;
36241;SDS011;22283;42.748;12.732;2022-10-31T14:51:43;12.70;;;2.72;;
36241;SDS011;22283;42.748;12.732;2022-10-31T14:56:50;17.67;;;2.83;;
36241;SDS011;22283;42.748;12.732;2022-10-31T15:01:59;16.90;;;4.20;;
36241;SDS011;22283;42.748;12.732;2022-10-31T15:07:04;18.05;;;3.08;;
36241;SDS011;22283;42.748;12.732;2022-10-31T15:12:25;15.30;;;4.85;;
36241;SDS011;22283;42.748;12.732;2022-10-31T15:22:28;25.23;;;11.80;;
36241;SDS011;22283;42.748;12.732;2022-10-31T15:27:31;43.25;;;12.60;;
36241;SDS011;22283;42.748;12.732;2022-10-31T15:32:33;12.90;;;7.82;;
36241;SDS011;22283;42.748;12.732;2022-10-31T15:37:34;23.03;;;6.33;;
36241;SDS011;22283;42.748;12.732;2022-10-31T15:42:35;16.48;;;5.25;;
36241;SDS011;22283;42.748;12.732;2022-10-31T15:53:17;11.70;;;5.28;;
36241;SDS011;22283;42.748;12.732;2022-10-31T15:58:24;10.02;;;4.10;;
36241;SDS011;22283;42.748;12.732;2022-10-31T16:03:28;17.98;;;4.20;;
36241;SDS011;22283;42.748;12.732;2022-10-31T16:13:31;13.47;;;3.70;;
36241;SDS011;22283;42.748;12.732;2022-10-31T16:18:35;19.73;;;4.75;;
36241;SDS011;22283;42.748;12.732;2022-10-31T16:23:38;18.80;;;4.68;;
36241;SDS011;22283;42.748;12.732;2022-10-31T16:28:54;12.25;;;4.05;;
36241;SDS011;22283;42.748;12.732;2022-10-31T16:34:01;18.05;;;5.25;;
36241;SDS011;22283;42.748;12.732;2022-10-31T16:39:21;16.63;;;4.68;;
36241;SDS011;22283;42.748;12.732;2022-10-31T16:44:23;17.87;;;5.67;;
36241;SDS011;22283;42.748;12.732;2022-10-31T16:49:25;30.10;;;5.13;;
36241;SDS011;22283;42.748;12.732;2022-10-31T16:54:27;11.20;;;3.67;;
36241;SDS011;22283;42.748;12.732;2022-10-31T16:59:29;12.55;;;4.97;;
36241;SDS011;22283;42.748;12.732;2022-10-31T17:04:31;18.42;;;6.82;;
36241;SDS011;22283;42.748;12.732;2022-10-31T17:09:32;14.93;;;6.00;;
36241;SDS011;22283;42.748;12.732;2022-10-31T17:14:33;9.73;;;5.77;;
36241;SDS011;22283;42.748;12.732;2022-10-31T17:19:34;14.75;;;6.35;;
36241;SDS011;22283;42.748;12.732;2022-10-31T17:24:35;9.37;;;5.67;;
36241;SDS011;22283;42.748;12.732;2022-10-31T17:29:36;12.38;;;5.18;;
36241;SDS011;22283;42.748;12.732;2022-10-31T17:34:37;14.27;;;4.63;;
36241;SDS011;22283;42.748;12.732;2022-10-31T17:39:37;15.77;;;4.80;;
36241;SDS011;22283;42.748;12.732;2022-10-31T17:44:38;9.67;;;4.20;;
36241;SDS011;22283;42.748;12.732;2022-10-31T17:49:39;13.43;;;5.77;;
36241;SDS011;22283;42.748;12.732;2022-10-31T17:54:39;11.70;;;5.80;;
36241;SDS011;22283;42.748;12.732;2022-10-31T17:59:40;14.53;;;5.17;;
36241;SDS011;22283;42.748;12.732;2022-10-31T18:04:41;14.13;;;5.15;;
36241;SDS011;22283;42.748;12.732;2022-10-31T18:09:42;16.03;;;5.00;;
36241;SDS011;22283;42.748;12.732;2022-10-31T18:14:42;11.17;;;4.60;;
36241;SDS011;22283;42.748;12.732;2022-10-31T18:19:43;11.30;;;6.27;;
36241;SDS011;22283;42.748;12.732;2022-10-31T18:29:45;15.60;;;7.63;;
36241;SDS011;22283;42.748;12.732;2022-10-31T18:34:46;11.80;;;6.47;;
36241;SDS011;22283;42.748;12.732;2022-10-31T18:39:46;18.63;;;6.37;;
36241;SDS011;22283;42.748;12.732;2022-10-31T18:44:47;15.37;;;5.97;;
36241;SDS011;22283;42.748;12.732;2022-10-31T18:49:48;17.73;;;6.83;;
36241;SDS011;22283;42.748;12.732;2022-10-31T18:54:49;14.47;;;6.03;;
36241;SDS011;22283;42.748;12.732;2022-10-31T18:59:50;16.87;;;6.50;;
36241;SDS011;22283;42.748;12.732;2022-10-31T19:04:50;12.97;;;5.50;;
36241;SDS011;22283;42.748;12.732;2022-10-31T19:09:51;14.03;;;6.30;;
36241;SDS011;22283;42.748;12.732;2022-10-31T19:14:51;13.17;;;6.53;;
36241;SDS011;22283;42.748;12.732;2022-10-31T19:19:52;15.50;;;6.20;;
36241;SDS011;22283;42.748;12.732;2022-10-31T19:24:53;7.77;;;5.60;;
36241;SDS011;22283;42.748;12.732;2022-10-31T19:29:53;11.90;;;5.13;;
36241;SDS011;22283;42.748;12.732;2022-10-31T19:34:54;18.10;;;8.23;;
36241;SDS011;22283;42.748;12.732;2022-10-31T19:39:54;19.03;;;6.70;;
36241;SDS011;22283;42.748;12.732;2022-10-31T19:44:55;14.33;;;6.13;;
36241;SDS011;22283;42.748;12.732;2022-10-31T19:49:56;12.37;;;5.73;;
36241;SDS011;22283;42.748;12.732;2022-10-31T19:54:57;9.33;;;4.90;;
36241;SDS011;22283;42.748;12.732;2022-10-31T19:59:57;9.53;;;5.07;;
36241;SDS011;22283;42.748;12.732;2022-10-31T20:04:58;13.00;;;5.23;;
36241;SDS011;22283;42.748;12.732;2022-10-31T20:09:59;10.93;;;5.43;;
36241;SDS011;22283;42.748;12.732;2022-10-31T20:15:00;14.37;;;5.40;;
36241;SDS011;22283;42.748;12.732;2022-10-31T20:20:01;8.63;;;4.50;;
36241;SDS011;22283;42.748;12.732;2022-10-31T20:25:07;11.30;;;5.70;;
36241;SDS011;22283;42.748;12.732;2022-10-31T20:30:08;11.23;;;5.43;;
36241;SDS011;22283;42.748;12.732;2022-10-31T20:35:09;9.18;;;5.13;;
36241;SDS011;22283;42.748;12.732;2022-10-31T20:40:10;11.07;;;5.45;;
36241;SDS011;22283;42.748;12.732;2022-10-31T20:45:11;9.77;;;4.87;;
36241;SDS011;22283;42.748;12.732;2022-10-31T20:50:12;10.40;;;4.70;;
36241;SDS011;22283;42.748;12.732;2022-10-31T20:55:12;9.27;;;4.80;;
36241;SDS011;22283;42.748;12.732;2022-10-31T21:00:13;9.13;;;4.47;;
36241;SDS011;22283;42.748;12.732;2022-10-31T21:05:14;19.93;;;4.90;;
36241;SDS011;22283;42.748;12.732;2022-10-31T21:10:15;10.00;;;5.10;;
36241;SDS011;22283;42.748;12.732;2022-10-31T21:15:15;11.10;;;5.33;;
36241;SDS011;22283;42.748;12.732;2022-10-31T21:20:16;7.23;;;4.30;;
36241;SDS011;22283;42.748;12.732;2022-10-31T21:25:17;8.10;;;5.13;;
36241;SDS011;22283;42.748;12.732;2022-10-31T21:30:17;10.93;;;4.27;;
36241;SDS011;22283;42.748;12.732;2022-10-31T21:35:18;9.80;;;4.47;;
36241;SDS011;22283;42.748;12.732;2022-10-31T21:40:19;7.00;;;3.57;;
36241;SDS011;22283;42.748;12.732;2022-10-31T21:45:19;10.23;;;4.17;;
36241;SDS011;22283;42.748;12.732;2022-10-31T21:50:20;11.35;;;3.47;;
36241;SDS011;22283;42.748;12.732;2022-10-31T21:55:21;10.35;;;4.07;;
36241;SDS011;22283;42.748;12.732;2022-10-31T22:00:22;11.10;;;3.60;;
36241;SDS011;22283;42.748;12.732;2022-10-31T22:05:23;8.87;;;3.80;;
36241;SDS011;22283;42.748;12.732;2022-10-31T22:10:24;5.90;;;3.77;;
36241;SDS011;22283;42.748;12.732;2022-10-31T22:15:24;11.30;;;4.07;;
36241;SDS011;22283;42.748;12.732;2022-10-31T22:20:25;8.67;;;3.77;;
36241;SDS011;22283;42.748;12.732;2022-10-31T22:25:26;7.87;;;3.93;;
36241;SDS011;22283;42.748;12.732;2022-10-31T22:30:26;9.10;;;3.73;;
36241;SDS011;22283;42.748;12.732;2022-10-31T22:35:27;11.60;;;4.27;;
36241;SDS011;22283;42.748;12.732;2022-10-31T22:40:27;14.17;;;4.20;;
36241;SDS011;22283;42.748;12.732;2022-10-31T22:45:28;11.03;;;4.83;;
36241;SDS011;22283;42.748;12.732;2022-10-31T22:50:29;9.93;;;4.20;;
36241;SDS011;22283;42.748;12.732;2022-10-31T22:55:29;13.00;;;3.30;;
36241;SDS011;22283;42.748;12.732;2022-10-31T23:00:30;13.60;;;3.77;;
36241;SDS011;22283;42.748;12.732;2022-10-31T23:05:31;8.33;;;3.40;;
36241;SDS011;22283;42.748;12.732;2022-10-31T23:10:32;7.27;;;2.87;;
36241;SDS011;22283;42.748;12.732;2022-10-31T23:15:35;9.48;;;3.70;;
36241;SDS011;22283;42.748;12.732;2022-10-31T23:20:37;10.27;;;3.10;;
36241;SDS011;22283;42.748;12.732;2022-10-31T23:25:37;6.10;;;3.63;;
36241;SDS011;22283;42.748;12.732;2022-10-31T23:30:56;6.20;;;3.42;;
36241;SDS011;22283;42.748;12.732;2022-10-31T23:35:57;14.47;;;2.90;;
36241;SDS011;22283;42.748;12.732;2022-10-31T23:40:58;8.10;;;3.60;;
36241;SDS011;22283;42.748;12.732;2022-10-31T23:45:59;5.87;;;3.23;;
36241;SDS011;22283;42.748;12.732;2022-10-31T23:50:59;8.70;;;3.90;;
36241;SDS011;22283;42.748;12.732;2022-10-31T23:56:00;5.87;;;3.00;;
